Aérodrome :
LOGIN :

S'inscrire | Disclaimer

   EN    FR    IT 

 










Légende :    VFR   VFR Marginal   IFR   IFR Intensif   IFR Très Intensif
Visi : 
Plafond : 
>= 8 km
>= 3000ft
5 à 8 km
1000 à 3000 ft
1500m à 5 km
500 à 1000 ft
800 à 1500m
200 à 500 ft
< 800m
< 200 ft
Symboles :   Orages  Brouillard  Fortes neiges  Fortes précipitations  Vent > 20 kt
SIGMETs :   Divers  Orages  Givrage  Turbulence  Onde Orograph.  Cendres Volcan.






- Altitude de l'aérodrome : 821 ft
- Code IATA : LYS


LFLL - Lyon St Exupéry / Satolas

DERNIER METAR :
  • 261200Z 25007KT 9999 FEW026TCU BKN033 10/07 Q1010 RETSRA NOSIG

METARs EXPIRÉS :
  • 261130Z 31009KT 270V350 9999 FEW020CB FEW023TCU BKN030 BKN040 09/06 Q1010 RETSRA NOSIG
  • 261100Z 33009KT 290V360 8000 -SHRA FEW020CB FEW023TCU BKN030 BKN040 12/06 Q1010 NOSIG
  • 261030Z 29008KT 260V330 9999 FEW020TCU SCT028 BKN040 12/05 Q1010 NOSIG
  • 261000Z 27005KT 220V310 9999 FEW017TCU BKN030 BKN040 11/07 Q1011 NOSIG
  • 260930Z VRB02KT 9999 FEW020TCU BKN036 BKN053 10/07 Q1011 NOSIG

TAF TAF LFLL
Valide du 26 à 12h jusqu'au 27 à 18h UTC


261100Z 2612/2718 28005KT 9999 SCT030
TEMPO 2612/2704 4000 SHRA SCT020 BKN030TCU
PROB40
TEMPO 2612/2618 32012G22KT -TSRA SCT020CB
BECMG 2704/2706 20009KT RA FEW030 BKN040



MET'MAP, la Météo Aéronautique d'un coup d'oeil ! - Copyright ORBIFLY Décembre 2007 - Disclaimer

ORBIFLY MET'MAP TEAM :

Programmation & Développement : Alexandra Zaïnal
Sur une idée originale de : Baudouin d'Aumeries
Assistance à la programmation : Marc-Olivier Méhu
Soutien technique & logistique : Manuel Goepfert

Contact : metmap@orbifly.com




SOURCES & CREDITS :

   NOAA